sensor_id;sensor_type;location;lat;lon;timestamp;pressure;altitude;pressure_sealevel;temperature;humidity
32761;BME280;19126;47.472;7.850;2024-03-25T00:00:35;74500.88;;;-146.25;62.34
32761;BME280;19126;47.472;7.850;2024-03-25T00:03:01;74502.88;;;-146.25;62.25
32761;BME280;19126;47.472;7.850;2024-03-25T00:05:28;74512.91;;;-146.25;61.54
32761;BME280;19126;47.472;7.850;2024-03-25T00:07:56;74516.91;;;-146.25;61.56
32761;BME280;19126;47.472;7.850;2024-03-25T00:10:24;74526.94;;;-146.25;61.66
32761;BME280;19126;47.472;7.850;2024-03-25T00:12:50;74524.91;;;-146.25;61.23
32761;BME280;19126;47.472;7.850;2024-03-25T00:15:20;74526.94;;;-146.25;60.63
32761;BME280;19126;47.472;7.850;2024-03-25T00:17:49;74530.94;;;-146.25;60.40
32761;BME280;19126;47.472;7.850;2024-03-25T00:20:17;74530.94;;;-146.25;59.72
32761;BME280;19126;47.472;7.850;2024-03-25T00:22:44;74528.94;;;-146.25;59.04
32761;BME280;19126;47.472;7.850;2024-03-25T00:25:12;74528.94;;;-146.25;58.63
32761;BME280;19126;47.472;7.850;2024-03-25T00:27:38;74528.94;;;-146.25;58.97
32761;BME280;19126;47.472;7.850;2024-03-25T00:30:07;74524.91;;;-146.25;58.00
32761;BME280;19126;47.472;7.850;2024-03-25T00:32:35;74514.91;;;-146.25;58.39
32761;BME280;19126;47.472;7.850;2024-03-25T00:35:03;74518.91;;;-146.25;58.31
32761;BME280;19126;47.472;7.850;2024-03-25T00:37:29;74520.91;;;-146.25;58.79
32761;BME280;19126;47.472;7.850;2024-03-25T00:39:56;74514.91;;;-146.25;58.57
32761;BME280;19126;47.472;7.850;2024-03-25T00:42:25;74516.91;;;-146.25;57.59
32761;BME280;19126;47.472;7.850;2024-03-25T00:44:52;74512.91;;;-146.25;57.86
32761;BME280;19126;47.472;7.850;2024-03-25T00:47:18;74510.88;;;-146.25;57.12
32761;BME280;19126;47.472;7.850;2024-03-25T00:49:45;74512.91;;;-146.25;56.92
32761;BME280;19126;47.472;7.850;2024-03-25T00:52:11;74508.88;;;-146.25;57.27
32761;BME280;19126;47.472;7.850;2024-03-25T00:54:39;74502.88;;;-146.25;56.65
32761;BME280;19126;47.472;7.850;2024-03-25T00:57:05;74496.84;;;-146.25;55.87
32761;BME280;19126;47.472;7.850;2024-03-25T00:59:35;74492.84;;;-146.25;56.03
32761;BME280;19126;47.472;7.850;2024-03-25T01:02:01;74490.84;;;-146.25;55.83
32761;BME280;19126;47.472;7.850;2024-03-25T01:04:28;74490.84;;;-146.25;55.00
32761;BME280;19126;47.472;7.850;2024-03-25T01:06:54;74484.81;;;-146.25;54.99
32761;BME280;19126;47.472;7.850;2024-03-25T01:09:22;74486.84;;;-146.25;54.87
32761;BME280;19126;47.472;7.850;2024-03-25T01:11:48;74482.81;;;-146.25;54.58
32761;BME280;19126;47.472;7.850;2024-03-25T01:14:15;74478.81;;;-146.25;55.14
32761;BME280;19126;47.472;7.850;2024-03-25T01:16:43;74482.81;;;-146.25;54.85
32761;BME280;19126;47.472;7.850;2024-03-25T01:19:10;74478.81;;;-146.25;54.76
32761;BME280;19126;47.472;7.850;2024-03-25T01:21:37;74474.81;;;-146.25;54.22
32761;BME280;19126;47.472;7.850;2024-03-25T01:24:03;74468.78;;;-146.25;53.79
32761;BME280;19126;47.472;7.850;2024-03-25T01:26:31;74470.78;;;-146.25;53.80
32761;BME280;19126;47.472;7.850;2024-03-25T01:28:57;74454.75;;;-146.25;53.83
32761;BME280;19126;47.472;7.850;2024-03-25T01:31:24;74450.75;;;-146.25;54.06
32761;BME280;19126;47.472;7.850;2024-03-25T01:33:51;74460.78;;;-146.25;53.42
32761;BME280;19126;47.472;7.850;2024-03-25T01:36:19;74458.75;;;-146.25;53.47
32761;BME280;19126;47.472;7.850;2024-03-25T01:38:45;74456.75;;;-146.25;53.23
32761;BME280;19126;47.472;7.850;2024-03-25T01:41:13;74454.75;;;-146.25;52.96
32761;BME280;19126;47.472;7.850;2024-03-25T01:43:41;74454.75;;;-146.25;52.76
32761;BME280;19126;47.472;7.850;2024-03-25T01:46:09;74454.75;;;-146.25;52.88
32761;BME280;19126;47.472;7.850;2024-03-25T01:48:36;74452.75;;;-146.25;53.15
32761;BME280;19126;47.472;7.850;2024-03-25T01:51:05;74458.75;;;-146.25;53.05
32761;BME280;19126;47.472;7.850;2024-03-25T01:53:31;74456.75;;;-146.25;53.05
32761;BME280;19126;47.472;7.850;2024-03-25T01:55:58;74452.75;;;-146.25;52.79
32761;BME280;19126;47.472;7.850;2024-03-25T01:58:25;74452.75;;;-146.25;52.83
32761;BME280;19126;47.472;7.850;2024-03-25T02:00:54;74448.75;;;-146.25;52.79
32761;BME280;19126;47.472;7.850;2024-03-25T02:03:21;74442.72;;;-146.25;52.89
32761;BME280;19126;47.472;7.850;2024-03-25T02:05:52;74436.72;;;-146.25;52.19
32761;BME280;19126;47.472;7.850;2024-03-25T02:08:23;74434.72;;;-146.25;52.01
32761;BME280;19126;47.472;7.850;2024-03-25T02:10:51;74430.69;;;-146.25;52.11
32761;BME280;19126;47.472;7.850;2024-03-25T02:13:18;74428.69;;;-146.25;51.69
32761;BME280;19126;47.472;7.850;2024-03-25T02:15:45;74428.69;;;-146.25;51.58
32761;BME280;19126;47.472;7.850;2024-03-25T02:18:12;74424.69;;;-146.25;51.25
32761;BME280;19126;47.472;7.850;2024-03-25T02:20:39;74420.69;;;-146.25;51.24
32761;BME280;19126;47.472;7.850;2024-03-25T02:23:05;74418.69;;;-146.25;50.38
32761;BME280;19126;47.472;7.850;2024-03-25T02:25:34;74410.66;;;-146.25;51.05
32761;BME280;19126;47.472;7.850;2024-03-25T02:28:02;74406.66;;;-146.25;50.69
32761;BME280;19126;47.472;7.850;2024-03-25T02:30:30;74410.66;;;-146.25;50.94
32761;BME280;19126;47.472;7.850;2024-03-25T02:32:56;74404.66;;;-146.25;50.40
32761;BME280;19126;47.472;7.850;2024-03-25T02:35:25;74408.66;;;-146.25;50.54
32761;BME280;19126;47.472;7.850;2024-03-25T02:37:53;74408.66;;;-146.25;50.89
32761;BME280;19126;47.472;7.850;2024-03-25T02:40:21;74414.66;;;-146.25;51.78
32761;BME280;19126;47.472;7.850;2024-03-25T02:42:48;74412.66;;;-146.25;51.82
32761;BME280;19126;47.472;7.850;2024-03-25T02:45:17;74406.66;;;-146.25;51.34
32761;BME280;19126;47.472;7.850;2024-03-25T02:47:45;74412.66;;;-146.25;51.63
32761;BME280;19126;47.472;7.850;2024-03-25T02:50:12;74416.66;;;-146.25;51.96
32761;BME280;19126;47.472;7.850;2024-03-25T02:52:38;74412.66;;;-146.25;52.58
32761;BME280;19126;47.472;7.850;2024-03-25T02:55:06;74414.66;;;-146.25;51.87
32761;BME280;19126;47.472;7.850;2024-03-25T02:57:32;74416.66;;;-146.25;51.54
32761;BME280;19126;47.472;7.850;2024-03-25T02:59:59;74418.69;;;-146.25;51.17
32761;BME280;19126;47.472;7.850;2024-03-25T03:02:27;74414.66;;;-146.25;51.37
32761;BME280;19126;47.472;7.850;2024-03-25T03:04:54;74416.66;;;-146.25;50.86
32761;BME280;19126;47.472;7.850;2024-03-25T03:07:20;74420.69;;;-146.25;51.30
32761;BME280;19126;47.472;7.850;2024-03-25T03:09:48;74420.69;;;-146.25;50.90
32761;BME280;19126;47.472;7.850;2024-03-25T03:12:14;74426.69;;;-146.25;51.27
32761;BME280;19126;47.472;7.850;2024-03-25T03:14:42;74424.69;;;-146.25;50.81
32761;BME280;19126;47.472;7.850;2024-03-25T03:17:08;74416.66;;;-146.25;51.40
32761;BME280;19126;47.472;7.850;2024-03-25T03:19:36;74416.66;;;-146.25;51.89
32761;BME280;19126;47.472;7.850;2024-03-25T03:22:02;74414.66;;;-146.25;51.51
32761;BME280;19126;47.472;7.850;2024-03-25T03:24:30;74420.69;;;-146.25;52.09
32761;BME280;19126;47.472;7.850;2024-03-25T03:26:57;74426.69;;;-146.25;52.41
32761;BME280;19126;47.472;7.850;2024-03-25T03:29:23;74426.69;;;-146.25;52.62
32761;BME280;19126;47.472;7.850;2024-03-25T03:31:50;74432.72;;;-146.25;52.86
32761;BME280;19126;47.472;7.850;2024-03-25T03:34:17;74434.72;;;-146.25;52.46
32761;BME280;19126;47.472;7.850;2024-03-25T03:36:45;74440.72;;;-146.25;53.32
32761;BME280;19126;47.472;7.850;2024-03-25T03:39:11;74442.72;;;-146.25;52.91
32761;BME280;19126;47.472;7.850;2024-03-25T03:41:39;74450.75;;;-146.25;53.92
32761;BME280;19126;47.472;7.850;2024-03-25T03:44:05;74456.75;;;-146.25;53.83
32761;BME280;19126;47.472;7.850;2024-03-25T03:46:32;74452.75;;;-146.25;53.93
32761;BME280;19126;47.472;7.850;2024-03-25T03:48:59;74450.75;;;-146.25;54.25
32761;BME280;19126;47.472;7.850;2024-03-25T03:51:26;74452.75;;;-146.25;54.09
32761;BME280;19126;47.472;7.850;2024-03-25T03:53:56;74452.75;;;-146.25;54.50
32761;BME280;19126;47.472;7.850;2024-03-25T03:56:23;74452.75;;;-146.25;54.63
32761;BME280;19126;47.472;7.850;2024-03-25T03:58:49;74450.75;;;-146.25;54.66
32761;BME280;19126;47.472;7.850;2024-03-25T04:01:17;74450.75;;;-146.25;54.52
32761;BME280;19126;47.472;7.850;2024-03-25T04:03:44;74454.75;;;-146.25;54.53
32761;BME280;19126;47.472;7.850;2024-03-25T04:06:12;74450.75;;;-146.25;54.42
32761;BME280;19126;47.472;7.850;2024-03-25T04:08:39;74458.75;;;-146.25;54.54
32761;BME280;19126;47.472;7.850;2024-03-25T04:11:08;74458.75;;;-146.25;54.88
32761;BME280;19126;47.472;7.850;2024-03-25T04:13:35;74458.75;;;-146.25;54.66
32761;BME280;19126;47.472;7.850;2024-03-25T04:16:04;74456.75;;;-146.25;54.38
32761;BME280;19126;47.472;7.850;2024-03-25T04:18:32;74464.78;;;-146.25;54.60
32761;BME280;19126;47.472;7.850;2024-03-25T04:20:59;74458.75;;;-146.25;54.18
32761;BME280;19126;47.472;7.850;2024-03-25T04:23:26;74458.75;;;-146.25;53.96
32761;BME280;19126;47.472;7.850;2024-03-25T04:25:53;74458.75;;;-146.25;53.97
32761;BME280;19126;47.472;7.850;2024-03-25T04:28:21;74462.78;;;-146.25;54.33
32761;BME280;19126;47.472;7.850;2024-03-25T04:31:03;74466.78;;;-146.25;54.49
32761;BME280;19126;47.472;7.850;2024-03-25T04:33:31;74470.78;;;-146.25;54.29
32761;BME280;19126;47.472;7.850;2024-03-25T04:35:58;74480.81;;;-146.25;54.93
32761;BME280;19126;47.472;7.850;2024-03-25T04:38:24;74484.81;;;-146.25;55.26
32761;BME280;19126;47.472;7.850;2024-03-25T04:40:50;74492.84;;;-146.25;55.58
32761;BME280;19126;47.472;7.850;2024-03-25T04:43:17;74492.84;;;-146.25;55.44
32761;BME280;19126;47.472;7.850;2024-03-25T04:45:45;74496.84;;;-146.25;55.92
32761;BME280;19126;47.472;7.850;2024-03-25T04:48:11;74506.88;;;-146.25;56.45
32761;BME280;19126;47.472;7.850;2024-03-25T04:50:37;74510.88;;;-146.25;56.74
32761;BME280;19126;47.472;7.850;2024-03-25T04:53:03;74522.91;;;-146.25;57.12
32761;BME280;19126;47.472;7.850;2024-03-25T04:55:30;74518.91;;;-146.25;57.22
32761;BME280;19126;47.472;7.850;2024-03-25T04:57:56;74524.91;;;-146.25;57.32
32761;BME280;19126;47.472;7.850;2024-03-25T05:00:22;74516.91;;;-146.25;57.18
32761;BME280;19126;47.472;7.850;2024-03-25T05:02:50;74514.91;;;-146.25;57.89
32761;BME280;19126;47.472;7.850;2024-03-25T05:05:16;74530.94;;;-146.25;58.53
32761;BME280;19126;47.472;7.850;2024-03-25T05:07:42;74536.94;;;-146.25;58.91
32761;BME280;19126;47.472;7.850;2024-03-25T05:10:09;74540.97;;;-146.25;59.51
32761;BME280;19126;47.472;7.850;2024-03-25T05:12:35;74557.00;;;-146.25;59.81
32761;BME280;19126;47.472;7.850;2024-03-25T05:15:02;74559.00;;;-146.25;59.65
32761;BME280;19126;47.472;7.850;2024-03-25T05:17:28;74571.03;;;-146.25;58.72
32761;BME280;19126;47.472;7.850;2024-03-25T05:19:55;74548.97;;;-146.25;58.86
32761;BME280;19126;47.472;7.850;2024-03-25T05:22:29;74569.03;;;-146.25;59.54
32761;BME280;19126;47.472;7.850;2024-03-25T05:24:55;74571.03;;;-146.25;59.62
32761;BME280;19126;47.472;7.850;2024-03-25T05:27:21;74579.06;;;-146.25;59.69
32761;BME280;19126;47.472;7.850;2024-03-25T05:29:49;74577.03;;;-146.25;59.51
32761;BME280;19126;47.472;7.850;2024-03-25T05:32:15;74585.06;;;-146.25;59.42
32761;BME280;19126;47.472;7.850;2024-03-25T05:34:42;74605.13;;;-146.25;59.83
32761;BME280;19126;47.472;7.850;2024-03-25T05:37:10;74605.13;;;-146.25;59.54
32761;BME280;19126;47.472;7.850;2024-03-25T05:39:36;74609.13;;;-146.25;59.36
32761;BME280;19126;47.472;7.850;2024-03-25T05:42:03;74611.13;;;-146.25;59.17
32761;BME280;19126;47.472;7.850;2024-03-25T05:44:29;74611.13;;;-146.25;59.06
32761;BME280;19126;47.472;7.850;2024-03-25T05:46:55;74619.16;;;-146.25;58.65
32761;BME280;19126;47.472;7.850;2024-03-25T05:49:22;74613.13;;;-146.25;58.35
32761;BME280;19126;47.472;7.850;2024-03-25T05:51:48;74611.13;;;-146.25;58.08
32761;BME280;19126;47.472;7.850;2024-03-25T05:54:15;74613.13;;;-146.25;57.60
32761;BME280;19126;47.472;7.850;2024-03-25T05:56:41;74607.13;;;-146.25;57.36
32761;BME280;19126;47.472;7.850;2024-03-25T05:59:08;74595.09;;;-146.25;56.74
32761;BME280;19126;47.472;7.850;2024-03-25T06:01:34;74603.09;;;-146.25;57.07
32761;BME280;19126;47.472;7.850;2024-03-25T06:04:00;74609.13;;;-146.25;56.53
32761;BME280;19126;47.472;7.850;2024-03-25T06:06:26;74605.13;;;-146.25;56.24
32761;BME280;19126;47.472;7.850;2024-03-25T06:08:53;74605.13;;;-146.25;55.76
32761;BME280;19126;47.472;7.850;2024-03-25T06:11:20;74599.09;;;-146.25;55.49
32761;BME280;19126;47.472;7.850;2024-03-25T06:13:46;74599.09;;;-146.25;55.08
32761;BME280;19126;47.472;7.850;2024-03-25T06:16:13;74599.09;;;-146.25;54.70
32761;BME280;19126;47.472;7.850;2024-03-25T06:18:39;74601.09;;;-146.25;54.28
32761;BME280;19126;47.472;7.850;2024-03-25T06:21:06;74599.09;;;-146.25;53.58
32761;BME280;19126;47.472;7.850;2024-03-25T06:23:32;74593.09;;;-146.25;52.97
32761;BME280;19126;47.472;7.850;2024-03-25T06:25:59;74591.06;;;-146.25;52.12
32761;BME280;19126;47.472;7.850;2024-03-25T06:28:26;74587.06;;;-146.25;51.29
32761;BME280;19126;47.472;7.850;2024-03-25T06:30:52;74569.03;;;-146.25;50.54
32761;BME280;19126;47.472;7.850;2024-03-25T06:33:37;74544.97;;;-146.25;49.80
32761;BME280;19126;47.472;7.850;2024-03-25T06:36:22;74528.94;;;-146.25;49.73
32761;BME280;19126;47.472;7.850;2024-03-25T06:38:48;74520.91;;;-146.25;49.20
32761;BME280;19126;47.472;7.850;2024-03-25T06:41:15;74494.84;;;-146.25;48.65
32761;BME280;19126;47.472;7.850;2024-03-25T06:43:42;74446.75;;;-146.25;47.10
32761;BME280;19126;47.472;7.850;2024-03-25T06:46:09;74388.59;;;-146.25;45.38
32761;BME280;19126;47.472;7.850;2024-03-25T06:48:35;74320.44;;;-146.25;42.82
32761;BME280;19126;47.472;7.850;2024-03-25T06:51:01;74272.34;;;-146.25;42.44
32761;BME280;19126;47.472;7.850;2024-03-25T06:53:28;74216.22;;;-146.25;42.18
32761;BME280;19126;47.472;7.850;2024-03-25T06:55:56;74200.19;;;-146.25;44.72
32761;BME280;19126;47.472;7.850;2024-03-25T06:58:24;74178.13;;;-146.25;49.04
32761;BME280;19126;47.472;7.850;2024-03-25T07:00:52;74164.09;;;-146.25;52.52
32761;BME280;19126;47.472;7.850;2024-03-25T07:03:20;74146.06;;;-146.25;56.71
32761;BME280;19126;47.472;7.850;2024-03-25T07:05:47;74122.00;;;-146.25;61.14
32761;BME280;19126;47.472;7.850;2024-03-25T07:08:13;74069.88;;;-146.25;62.08
32761;BME280;19126;47.472;7.850;2024-03-25T07:10:42;74029.78;;;-146.25;66.08
32761;BME280;19126;47.472;7.850;2024-03-25T07:13:08;74003.72;;;-146.25;71.62
32761;BME280;19126;47.472;7.850;2024-03-25T07:15:35;73981.69;;;-146.25;76.99
32761;BME280;19126;47.472;7.850;2024-03-25T07:18:03;73967.66;;;-146.25;82.83
32761;BME280;19126;47.472;7.850;2024-03-25T07:20:30;73931.56;;;-146.25;83.52
32761;BME280;19126;47.472;7.850;2024-03-25T07:22:56;73905.50;;;-146.25;85.53
32761;BME280;19126;47.472;7.850;2024-03-25T07:25:23;73893.50;;;-146.25;87.58
32761;BME280;19126;47.472;7.850;2024-03-25T07:27:49;73839.38;;;-146.25;88.18
32761;BME280;19126;47.472;7.850;2024-03-25T07:30:16;73791.28;;;-146.25;88.36
32761;BME280;19126;47.472;7.850;2024-03-25T07:32:45;73751.19;;;-146.25;88.39
32761;BME280;19126;47.472;7.850;2024-03-25T07:35:12;73701.06;;;-146.25;87.79
32761;BME280;19126;47.472;7.850;2024-03-25T07:37:39;73687.03;;;-146.25;85.08
32761;BME280;19126;47.472;7.850;2024-03-25T07:40:07;73661.00;;;-146.25;81.69
32761;BME280;19126;47.472;7.850;2024-03-25T07:42:35;73612.88;;;-146.25;80.82
32761;BME280;19126;47.472;7.850;2024-03-25T07:45:01;73620.91;;;-146.25;76.25
32761;BME280;19126;47.472;7.850;2024-03-25T07:47:27;73614.88;;;-146.25;73.40
32761;BME280;19126;47.472;7.850;2024-03-25T07:49:53;73600.84;;;-146.25;74.95
32761;BME280;19126;47.472;7.850;2024-03-25T07:52:21;73564.78;;;-146.25;73.04
32761;BME280;19126;47.472;7.850;2024-03-25T07:54:47;73556.78;;;-146.25;71.51
32761;BME280;19126;47.472;7.850;2024-03-25T07:57:14;73552.75;;;-146.25;69.35
32761;BME280;19126;47.472;7.850;2024-03-25T07:59:40;73524.69;;;-146.25;70.27
32761;BME280;19126;47.472;7.850;2024-03-25T08:02:06;73522.69;;;-146.25;69.18
32761;BME280;19126;47.472;7.850;2024-03-25T08:04:32;73504.66;;;-146.25;69.55
32761;BME280;19126;47.472;7.850;2024-03-25T08:06:58;73464.56;;;-146.25;68.59
32761;BME280;19126;47.472;7.850;2024-03-25T08:09:26;73464.56;;;-146.25;65.31
32761;BME280;19126;47.472;7.850;2024-03-25T08:11:52;73476.59;;;-146.25;63.63
32761;BME280;19126;47.472;7.850;2024-03-25T08:14:18;73494.63;;;-146.25;63.72
32761;BME280;19126;47.472;7.850;2024-03-25T08:16:45;73460.56;;;-146.25;69.63
32761;BME280;19126;47.472;7.850;2024-03-25T08:19:11;73400.44;;;-146.25;69.38
32761;BME280;19126;47.472;7.850;2024-03-25T08:21:37;73358.34;;;-146.25;67.13
32761;BME280;19126;47.472;7.850;2024-03-25T08:24:04;73354.34;;;-146.25;66.23
32761;BME280;19126;47.472;7.850;2024-03-25T08:26:32;73380.41;;;-146.25;61.66
32761;BME280;19126;47.472;7.850;2024-03-25T08:36:20;73530.72;;;-146.25;63.12
32761;BME280;19126;47.472;7.850;2024-03-25T08:38:47;73518.69;;;-146.25;64.01
32761;BME280;19126;47.472;7.850;2024-03-25T08:41:13;73506.66;;;-146.25;63.54
32761;BME280;19126;47.472;7.850;2024-03-25T08:43:40;73422.50;;;-146.25;69.08
32761;BME280;19126;47.472;7.850;2024-03-25T08:46:07;73372.38;;;-146.25;66.22
32761;BME280;19126;47.472;7.850;2024-03-25T08:48:33;73326.28;;;-146.25;66.30
32761;BME280;19126;47.472;7.850;2024-03-25T08:50:59;73276.19;;;-146.25;66.47
32761;BME280;19126;47.472;7.850;2024-03-25T08:53:25;73260.16;;;-146.25;65.49
32761;BME280;19126;47.472;7.850;2024-03-25T08:55:51;73252.13;;;-146.25;64.53
32761;BME280;19126;47.472;7.850;2024-03-25T08:58:18;73262.16;;;-146.25;62.67
32761;BME280;19126;47.472;7.850;2024-03-25T09:00:45;73244.13;;;-146.25;63.72
32761;BME280;19126;47.472;7.850;2024-03-25T09:03:11;73240.13;;;-146.25;62.12
32761;BME280;19126;47.472;7.850;2024-03-25T09:05:38;73214.06;;;-146.25;61.46
32761;BME280;19126;47.472;7.850;2024-03-25T09:08:05;73216.06;;;-146.25;60.86
32761;BME280;19126;47.472;7.850;2024-03-25T09:10:32;73212.06;;;-146.25;57.49
32761;BME280;19126;47.472;7.850;2024-03-25T09:13:17;73169.97;;;-146.25;61.67
32761;BME280;19126;47.472;7.850;2024-03-25T09:15:44;73133.91;;;-146.25;59.70
32761;BME280;19126;47.472;7.850;2024-03-25T09:18:10;73129.88;;;-146.25;54.57
32761;BME280;19126;47.472;7.850;2024-03-25T09:20:36;73188.00;;;-146.25;51.81
32761;BME280;19126;47.472;7.850;2024-03-25T09:23:03;73222.06;;;-146.25;54.87
32761;BME280;19126;47.472;7.850;2024-03-25T09:25:29;73250.13;;;-146.25;56.13
32761;BME280;19126;47.472;7.850;2024-03-25T09:27:56;73206.03;;;-146.25;60.10
32761;BME280;19126;47.472;7.850;2024-03-25T09:30:22;73165.97;;;-146.25;56.69
32761;BME280;19126;47.472;7.850;2024-03-25T09:32:49;73111.84;;;-146.25;61.02
32761;BME280;19126;47.472;7.850;2024-03-25T09:35:16;73123.88;;;-146.25;59.76
32761;BME280;19126;47.472;7.850;2024-03-25T09:37:42;73093.81;;;-146.25;57.73
32761;BME280;19126;47.472;7.850;2024-03-25T09:40:09;73047.72;;;-146.25;56.87
32761;BME280;19126;47.472;7.850;2024-03-25T09:42:43;73021.69;;;-146.25;57.20
32761;BME280;19126;47.472;7.850;2024-03-25T09:45:15;73003.66;;;-146.25;53.60
32761;BME280;19126;47.472;7.850;2024-03-25T09:47:45;73009.66;;;-146.25;53.58
32761;BME280;19126;47.472;7.850;2024-03-25T09:50:13;73027.69;;;-146.25;54.13
32761;BME280;19126;47.472;7.850;2024-03-25T09:52:40;73083.81;;;-146.25;51.44
32761;BME280;19126;47.472;7.850;2024-03-25T09:55:07;73085.81;;;-146.25;53.27
32761;BME280;19126;47.472;7.850;2024-03-25T09:57:34;73053.75;;;-146.25;54.14
32761;BME280;19126;47.472;7.850;2024-03-25T10:00:01;73055.75;;;-146.25;54.59
32761;BME280;19126;47.472;7.850;2024-03-25T10:02:28;73079.78;;;-146.25;53.25
32761;BME280;19126;47.472;7.850;2024-03-25T10:04:55;73105.84;;;-146.25;53.72
32761;BME280;19126;47.472;7.850;2024-03-25T10:07:24;73137.91;;;-146.25;53.75
32761;BME280;19126;47.472;7.850;2024-03-25T10:09:51;73139.91;;;-146.25;55.46
32761;BME280;19126;47.472;7.850;2024-03-25T10:12:18;73139.91;;;-146.25;55.79
32761;BME280;19126;47.472;7.850;2024-03-25T10:14:44;73194.03;;;-146.25;54.27
32761;BME280;19126;47.472;7.850;2024-03-25T10:17:10;73210.06;;;-146.25;56.53
32761;BME280;19126;47.472;7.850;2024-03-25T10:19:37;73184.00;;;-146.25;57.91
32761;BME280;19126;47.472;7.850;2024-03-25T10:22:05;73157.94;;;-146.25;56.26
32761;BME280;19126;47.472;7.850;2024-03-25T10:24:40;73145.91;;;-146.25;56.55
32761;BME280;19126;47.472;7.850;2024-03-25T10:27:11;73139.91;;;-146.25;54.29
32761;BME280;19126;47.472;7.850;2024-03-25T10:29:37;73123.88;;;-146.25;54.37
32761;BME280;19126;47.472;7.850;2024-03-25T10:32:04;73089.81;;;-146.25;56.39
32761;BME280;19126;47.472;7.850;2024-03-25T10:34:31;73077.78;;;-146.25;53.98
32761;BME280;19126;47.472;7.850;2024-03-25T10:36:58;73087.81;;;-146.25;54.14
32761;BME280;19126;47.472;7.850;2024-03-25T10:39:27;73081.78;;;-146.25;54.50
32761;BME280;19126;47.472;7.850;2024-03-25T10:41:58;73071.78;;;-146.25;53.15
32761;BME280;19126;47.472;7.850;2024-03-25T10:44:26;73049.72;;;-146.25;55.07
32761;BME280;19126;47.472;7.850;2024-03-25T10:46:57;73047.72;;;-146.25;53.54
32761;BME280;19126;47.472;7.850;2024-03-25T10:49:37;73019.66;;;-146.25;53.93
32761;BME280;19126;47.472;7.850;2024-03-25T10:52:05;72981.59;;;-146.25;53.70
32761;BME280;19126;47.472;7.850;2024-03-25T10:54:33;72963.56;;;-146.25;51.53
32761;BME280;19126;47.472;7.850;2024-03-25T10:57:04;72929.50;;;-146.25;53.55
32761;BME280;19126;47.472;7.850;2024-03-25T10:59:31;72903.44;;;-146.25;52.39
32761;BME280;19126;47.472;7.850;2024-03-25T11:01:57;72891.41;;;-146.25;49.66
32761;BME280;19126;47.472;7.850;2024-03-25T11:04:23;72913.47;;;-146.25;50.88
32761;BME280;19126;47.472;7.850;2024-03-25T11:06:50;72895.44;;;-146.25;50.69
32761;BME280;19126;47.472;7.850;2024-03-25T11:09:23;72891.41;;;-146.25;50.46
32761;BME280;19126;47.472;7.850;2024-03-25T11:11:53;72893.44;;;-146.25;50.12
32761;BME280;19126;47.472;7.850;2024-03-25T11:14:25;72917.47;;;-146.25;50.10
32761;BME280;19126;47.472;7.850;2024-03-25T11:16:51;72883.41;;;-146.25;51.46
32761;BME280;19126;47.472;7.850;2024-03-25T11:19:18;72859.34;;;-146.25;52.08
32761;BME280;19126;47.472;7.850;2024-03-25T11:21:45;72891.41;;;-146.25;49.45
32761;BME280;19126;47.472;7.850;2024-03-25T11:24:12;72941.53;;;-146.25;49.24
32761;BME280;19126;47.472;7.850;2024-03-25T11:26:41;72953.53;;;-146.25;49.55
32761;BME280;19126;47.472;7.850;2024-03-25T11:29:08;72983.59;;;-146.25;50.73
32761;BME280;19126;47.472;7.850;2024-03-25T11:31:39;73019.66;;;-146.25;49.66
32761;BME280;19126;47.472;7.850;2024-03-25T11:34:05;73035.72;;;-146.25;52.35
32761;BME280;19126;47.472;7.850;2024-03-25T11:36:32;73011.66;;;-146.25;50.75
32761;BME280;19126;47.472;7.850;2024-03-25T11:38:59;72965.56;;;-146.25;51.77
32761;BME280;19126;47.472;7.850;2024-03-25T11:41:54;72943.53;;;-146.25;51.96
32761;BME280;19126;47.472;7.850;2024-03-25T11:44:21;72965.56;;;-146.25;51.11
32761;BME280;19126;47.472;7.850;2024-03-25T11:46:50;72971.56;;;-146.25;51.81
32761;BME280;19126;47.472;7.850;2024-03-25T11:49:17;72995.63;;;-146.25;51.27
32761;BME280;19126;47.472;7.850;2024-03-25T11:51:43;72983.59;;;-146.25;51.61
32761;BME280;19126;47.472;7.850;2024-03-25T11:54:10;72971.56;;;-146.25;51.14
32761;BME280;19126;47.472;7.850;2024-03-25T11:56:37;72957.56;;;-146.25;51.46
32761;BME280;19126;47.472;7.850;2024-03-25T11:59:04;72943.53;;;-146.25;52.93
32761;BME280;19126;47.472;7.850;2024-03-25T12:01:30;72911.47;;;-146.25;51.04
32761;BME280;19126;47.472;7.850;2024-03-25T12:04:09;72917.47;;;-146.25;49.56
32761;BME280;19126;47.472;7.850;2024-03-25T12:06:35;72883.41;;;-146.25;51.69
32761;BME280;19126;47.472;7.850;2024-03-25T12:09:02;72921.47;;;-146.25;46.60
32761;BME280;19126;47.472;7.850;2024-03-25T12:11:46;72925.50;;;-146.25;47.66
32761;BME280;19126;47.472;7.850;2024-03-25T12:14:14;72891.41;;;-146.25;46.08
32761;BME280;19126;47.472;7.850;2024-03-25T12:16:40;72903.44;;;-146.25;46.21
32761;BME280;19126;47.472;7.850;2024-03-25T12:19:08;72899.44;;;-146.25;46.15
32761;BME280;19126;47.472;7.850;2024-03-25T12:21:34;72915.47;;;-146.25;47.13
32761;BME280;19126;47.472;7.850;2024-03-25T12:24:01;72909.47;;;-146.25;47.30
32761;BME280;19126;47.472;7.850;2024-03-25T12:26:27;72939.50;;;-146.25;46.43
32761;BME280;19126;47.472;7.850;2024-03-25T12:29:30;72933.50;;;-146.25;46.16
32761;BME280;19126;47.472;7.850;2024-03-25T12:31:57;72933.50;;;-146.25;47.74
32761;BME280;19126;47.472;7.850;2024-03-25T12:34:26;72957.56;;;-146.25;44.56
32761;BME280;19126;47.472;7.850;2024-03-25T12:37:01;72933.50;;;-146.25;45.58
32761;BME280;19126;47.472;7.850;2024-03-25T12:39:27;72893.44;;;-146.25;46.46
32761;BME280;19126;47.472;7.850;2024-03-25T12:41:53;72899.44;;;-146.25;44.89
32761;BME280;19126;47.472;7.850;2024-03-25T12:44:20;72915.47;;;-146.25;44.55
32761;BME280;19126;47.472;7.850;2024-03-25T12:46:46;72895.44;;;-146.25;44.60
32761;BME280;19126;47.472;7.850;2024-03-25T12:49:12;72869.38;;;-146.25;45.14